Time;durP1;ratioP1;P1;durP2;ratioP2;P2;SDS_P1;SDS_P2;PMS_P1;PMS_P2;Temp;Humidity;BMP_temperature;BMP_pressure;BME280_temperature;BME280_humidity;BME280_pressure;Samples;Min_cycle;Max_cycle;Signal;HPM_P1;HPM_P2
2022/01/20 00:00:32;;;;;;;46.97;18.30;;;3.30;99.90;;;;;;4861117;29;20045;-84
2022/01/20 00:03:02;;;;;;;67.37;33.03;;;3.30;99.90;;;;;;4860716;29;20090;-85
2022/01/20 00:27:06;;;;;;;23.50;6.85;;;3.40;99.90;;;;;;4860788;29;20113;-84
2022/01/20 00:29:48;;;;;;;19.10;4.90;;;3.40;99.90;;;;;;4844667;29;20073;-84
2022/01/20 00:32:15;;;;;;;16.80;4.03;;;3.40;99.90;;;;;;4859604;29;20078;-84
2022/01/20 00:37:38;;;;;;;13.90;2.43;;;3.30;99.90;;;;;;4849761;29;20056;-84
2022/01/20 00:40:04;;;;;;;16.20;2.37;;;3.30;99.90;;;;;;4859963;29;20046;-84
2022/01/20 00:42:30;;;;;;;13.93;2.20;;;3.30;99.90;;;;;;4843653;29;20094;-84
2022/01/20 00:44:56;;;;;;;11.40;2.27;;;3.20;99.90;;;;;;4860115;29;20053;-84
2022/01/20 00:47:22;;;;;;;21.87;2.77;;;3.30;99.90;;;;;;4859723;29;20050;-83
2022/01/20 00:49:48;;;;;;;18.87;2.70;;;3.30;99.90;;;;;;4858821;29;20117;-84
2022/01/20 00:52:15;;;;;;;14.60;3.20;;;3.30;99.90;;;;;;4859355;29;20053;-84
2022/01/20 00:55:02;;;;;;;13.33;2.33;;;3.20;99.90;;;;;;4860243;29;20484;-84
2022/01/20 00:57:39;;;;;;;13.13;2.20;;;3.20;99.90;;;;;;4858163;29;20054;-84
2022/01/20 01:00:07;;;;;;;13.10;2.20;;;3.00;99.90;;;;;;4859552;29;20061;-84
2022/01/20 01:02:56;;;;;;;13.90;2.33;;;3.20;99.90;;;;;;4843343;29;20052;-84
2022/01/20 01:05:26;;;;;;;18.37;3.33;;;4.30;99.90;;;;;;4859447;29;20081;-84
2022/01/20 01:08:06;;;;;;;11.60;2.03;;;3.10;99.90;;;;;;4859533;29;20056;-84
2022/01/20 01:10:34;;;;;;;14.27;2.63;;;3.10;99.90;;;;;;4858453;29;20426;-84
2022/01/20 01:15:33;;;;;;;15.10;2.63;;;3.30;99.90;;;;;;4859112;29;20105;-85
2022/01/20 01:23:51;;;;;;;13.13;2.27;;;2.90;99.90;;;;;;4843153;29;20092;-84
2022/01/20 01:26:18;;;;;;;14.30;2.97;;;3.00;99.90;;;;;;4856617;29;20498;-84
2022/01/20 01:28:45;;;;;;;13.67;2.40;;;3.00;99.90;;;;;;4859452;29;20409;-84
2022/01/20 01:33:52;;;;;;;15.17;2.30;;;3.10;99.90;;;;;;4859087;29;20117;-84
2022/01/20 01:36:21;;;;;;;10.80;2.20;;;3.00;99.90;;;;;;4859073;29;20355;-84
2022/01/20 01:38:47;;;;;;;13.50;2.07;;;3.00;99.90;;;;;;4858298;29;20041;-84
2022/01/20 01:41:35;;;;;;;12.30;2.10;;;3.00;99.90;;;;;;4858534;29;20060;-84
2022/01/20 01:44:06;;;;;;;14.60;1.97;;;3.00;99.90;;;;;;4859475;29;20049;-84
2022/01/20 01:46:32;;;;;;;17.40;2.80;;;3.10;99.90;;;;;;4858023;29;20057;-84
2022/01/20 01:48:58;;;;;;;13.17;2.10;;;3.00;99.90;;;;;;4859067;29;20045;-84
2022/01/20 01:51:25;;;;;;;12.97;2.30;;;3.10;99.90;;;;;;4858929;29;20505;-84
2022/01/20 01:53:51;;;;;;;14.73;2.00;;;3.10;99.90;;;;;;4858796;29;20106;-84
2022/01/20 01:56:16;;;;;;;14.03;2.30;;;3.20;99.90;;;;;;4874491;29;20037;-84
2022/01/20 01:58:42;;;;;;;15.90;2.90;;;3.20;99.90;;;;;;4858453;29;20105;-84
2022/01/20 02:01:08;;;;;;;15.53;2.43;;;3.20;99.90;;;;;;4859097;29;20421;-84
2022/01/20 02:03:42;;;;;;;15.03;2.50;;;3.30;99.90;;;;;;4858398;29;20049;-84
2022/01/20 02:06:29;;;;;;;10.73;1.73;;;3.30;99.90;;;;;;4858028;29;20054;-84
2022/01/20 02:09:19;;;;;;;12.43;1.90;;;3.30;99.90;;;;;;4859251;29;20054;-84
2022/01/20 02:19:57;;;;;;;;;;;3.20;99.90;;;;;;4858416;29;20398;-84
2022/01/20 02:22:24;;;;;;;10.47;1.73;;;3.10;99.90;;;;;;4859728;29;19931;-83
2022/01/20 02:24:49;;;;;;;13.77;2.33;;;3.00;99.90;;;;;;4858854;29;20493;-84
2022/01/20 02:27:15;;;;;;;11.40;2.30;;;3.00;99.90;;;;;;4858863;29;20077;-85
2022/01/20 02:29:41;;;;;;;8.77;1.50;;;3.00;99.90;;;;;;4874549;29;20409;-84
2022/01/20 02:32:07;;;;;;;11.10;1.83;;;2.90;99.90;;;;;;4858420;29;20077;-84
2022/01/20 02:34:33;;;;;;;8.73;1.60;;;2.80;99.90;;;;;;4858507;29;20502;-84
2022/01/20 02:37:04;;;;;;;6.23;1.43;;;2.80;99.90;;;;;;4858973;29;20129;-84
2022/01/20 02:44:51;;;;;;;11.70;1.77;;;2.80;99.90;;;;;;4858623;29;20057;-84
2022/01/20 02:47:18;;;;;;;10.20;1.70;;;2.90;99.90;;;;;;4858167;29;20092;-84
2022/01/20 02:49:45;;;;;;;6.40;1.73;;;2.80;99.90;;;;;;4858123;29;20494;-84
2022/01/20 02:52:11;;;;;;;10.03;1.70;;;2.90;99.90;;;;;;4846361;29;20214;-85
2022/01/20 02:54:37;;;;;;;10.33;1.60;;;3.00;99.90;;;;;;4862703;29;20541;-85
2022/01/20 02:57:04;;;;;;;8.50;1.40;;;3.00;99.90;;;;;;4862238;29;20088;-85
2022/01/20 02:59:30;;;;;;;11.97;1.63;;;3.00;99.90;;;;;;4891283;29;20369;-85
2022/01/20 03:01:57;;;;;;;6.93;1.57;;;3.00;99.90;;;;;;4862055;29;20098;-85
2022/01/20 03:04:26;;;;;;;6.80;1.60;;;3.00;99.90;;;;;;4877174;29;20041;-85
2022/01/20 03:06:55;;;;;;;12.67;1.80;;;4.00;99.90;;;;;;4861773;29;20045;-85
2022/01/20 03:09:21;;;;;;;8.30;1.73;;;2.90;99.90;;;;;;4861191;29;20490;-85
2022/01/20 03:11:47;;;;;;;11.40;2.03;;;2.90;99.90;;;;;;4877844;29;20458;-85
2022/01/20 03:14:14;;;;;;;7.83;1.97;;;3.30;99.90;;;;;;4877514;29;20085;-86
2022/01/20 03:16:40;;;;;;;8.53;1.70;;;2.70;99.90;;;;;;4861449;29;20402;-86
2022/01/20 03:19:06;;;;;;;9.97;1.47;;;2.60;99.90;;;;;;4862083;29;20490;-86
2022/01/20 03:21:31;;;;;;;9.93;1.30;;;2.50;99.90;;;;;;4861667;29;20094;-85
2022/01/20 03:24:06;;;;;;;12.10;1.60;;;2.50;99.90;;;;;;4862618;29;20057;-86
2022/01/20 03:26:38;;;;;;;12.37;1.70;;;2.40;99.90;;;;;;4861543;29;20065;-86
2022/01/20 03:29:05;;;;;;;7.57;1.50;;;3.40;99.90;;;;;;4876991;29;20065;-86
2022/01/20 03:31:47;;;;;;;8.47;1.73;;;3.80;99.90;;;;;;4862871;29;20057;-86
2022/01/20 03:34:31;;;;;;;11.87;1.83;;;2.10;99.90;;;;;;4865221;29;20037;-86
2022/01/20 03:37:12;;;;;;;12.80;2.03;;;2.30;99.90;;;;;;4870785;29;20057;-86
2022/01/20 03:39:56;;;;;;;14.37;2.50;;;2.20;99.90;;;;;;4861813;29;20061;-86
2022/01/20 03:42:21;;;;;;;9.50;1.67;;;2.10;99.90;;;;;;4846404;29;20053;-86
2022/01/20 03:44:47;;;;;;;13.57;2.27;;;2.40;99.90;;;;;;4876168;29;20050;-87
2022/01/20 03:47:13;;;;;;;17.03;2.53;;;2.30;99.90;;;;;;4877252;29;20398;-84
2022/01/20 03:49:51;;;;;;;15.47;2.93;;;2.30;99.90;;;;;;4877009;29;20518;-84
2022/01/20 03:52:19;;;;;;;17.43;2.40;;;2.30;99.90;;;;;;4860436;29;20185;-84
2022/01/20 03:54:45;;;;;;;14.03;2.27;;;2.30;99.90;;;;;;4877066;29;20409;-84
2022/01/20 03:57:11;;;;;;;16.70;4.00;;;2.20;99.90;;;;;;4861470;29;20050;-84
2022/01/20 03:59:36;;;;;;;13.03;2.67;;;2.20;99.90;;;;;;4861414;29;20137;-84
2022/01/20 04:02:02;;;;;;;15.47;3.03;;;2.20;99.90;;;;;;4862395;29;20057;-85
2022/01/20 04:04:28;;;;;;;13.67;2.50;;;2.20;99.90;;;;;;4860402;29;20133;-84
2022/01/20 04:06:54;;;;;;;15.93;2.90;;;2.20;99.90;;;;;;4861990;29;20136;-85
2022/01/20 04:09:31;;;;;;;16.57;2.33;;;2.20;99.90;;;;;;4863815;29;20033;-85
2022/01/20 04:12:09;;;;;;;15.63;3.23;;;2.20;99.90;;;;;;4871856;29;20050;-85
2022/01/20 04:14:44;;;;;;;22.00;3.37;;;3.80;99.90;;;;;;4862763;29;20050;-85
2022/01/20 04:17:27;;;;;;;16.97;3.03;;;2.20;99.90;;;;;;4862052;29;20053;-85
2022/01/20 04:19:58;;;;;;;13.03;2.63;;;2.10;99.90;;;;;;4854455;29;20057;-85
2022/01/20 04:22:42;;;;;;;21.63;3.20;;;1.50;99.90;;;;;;4861805;29;20054;-85
2022/01/20 04:25:08;;;;;;;16.05;3.35;;;2.30;99.90;;;;;;4860923;29;20092;-85
2022/01/20 04:27:45;;;;;;;20.00;3.97;;;2.10;99.90;;;;;;4858114;29;20154;-85
2022/01/20 04:30:28;;;;;;;18.63;3.23;;;1.60;99.90;;;;;;4861081;29;20135;-85
2022/01/20 04:32:59;;;;;;;17.93;2.57;;;1.80;99.90;;;;;;4860781;29;20053;-85
2022/01/20 04:35:37;;;;;;;18.90;3.03;;;1.90;99.90;;;;;;4859690;29;20106;-85
2022/01/20 04:38:03;;;;;;;14.33;3.13;;;3.10;99.90;;;;;;4860727;29;20454;-85
2022/01/20 04:40:44;;;;;;;17.80;3.07;;;1.90;99.90;;;;;;4861067;29;20132;-85
2022/01/20 04:43:28;;;;;;;17.37;3.47;;;1.60;99.90;;;;;;4863420;29;20093;-85
2022/01/20 04:46:18;;;;;;;;;;;1.70;99.90;;;;;;4862633;29;20098;-86
2022/01/20 04:57:22;;;;;;;14.57;2.30;;;2.80;99.90;;;;;;4878726;29;20077;-85
2022/01/20 04:59:53;;;;;;;11.03;2.20;;;1.50;99.90;;;;;;4863699;29;20468;-85
2022/01/20 05:02:20;;;;;;;13.67;2.57;;;1.50;99.90;;;;;;4862171;29;20059;-85
2022/01/20 05:04:45;;;;;;;14.80;2.30;;;1.50;99.90;;;;;;4878151;29;20049;-85
2022/01/20 05:07:19;;;;;;;16.20;2.33;;;1.40;99.90;;;;;;4878834;29;20061;-85
2022/01/20 05:09:45;;;;;;;14.43;2.85;;;1.30;99.90;;;;;;4879445;29;20053;-85
2022/01/20 05:12:14;;;;;;;17.00;2.20;;;1.30;99.90;;;;;;4864145;29;20053;-85
2022/01/20 05:14:40;;;;;;;14.37;2.50;;;1.30;99.90;;;;;;4877770;29;20053;-85
2022/01/20 05:17:06;;;;;;;13.43;2.60;;;2.20;99.90;;;;;;4878030;29;20053;-85
2022/01/20 05:19:32;;;;;;;14.43;2.13;;;1.30;99.90;;;;;;4878518;29;20084;-85
2022/01/20 05:21:59;;;;;;;13.20;2.43;;;1.30;99.90;;;;;;4880134;29;20581;-85
2022/01/20 05:24:25;;;;;;;15.80;2.67;;;1.20;99.90;;;;;;4891631;29;20107;-86
2022/01/20 05:26:53;;;;;;;14.17;2.30;;;1.90;99.90;;;;;;4881279;29;20533;-85
2022/01/20 05:29:19;;;;;;;14.47;2.33;;;1.10;99.90;;;;;;4862691;29;20057;-85
2022/01/20 05:31:45;;;;;;;14.27;2.70;;;1.00;99.90;;;;;;4878748;29;20057;-85
2022/01/20 05:34:11;;;;;;;14.40;3.17;;;1.00;99.90;;;;;;4862717;29;20037;-84
2022/01/20 05:36:37;;;;;;;12.83;2.13;;;0.90;99.90;;;;;;4861914;29;20383;-85
2022/01/20 05:39:03;;;;;;;13.80;2.50;;;0.90;99.90;;;;;;4878648;29;20386;-84
2022/01/20 05:41:29;;;;;;;11.33;2.03;;;0.90;99.90;;;;;;4878421;29;20063;-85
2022/01/20 05:43:56;;;;;;;11.87;2.30;;;0.80;99.90;;;;;;4862308;29;20132;-84
2022/01/20 05:46:33;;;;;;;10.90;2.20;;;1.00;99.90;;;;;;4877757;29;20052;-85
2022/01/20 05:49:08;;;;;;;11.83;2.10;;;1.00;99.90;;;;;;4878226;29;20045;-85
2022/01/20 05:51:35;;;;;;;17.83;3.00;;;1.00;99.90;;;;;;4862098;29;20505;-84
2022/01/20 05:54:00;;;;;;;11.57;2.20;;;1.00;99.90;;;;;;4878202;29;20084;-84
2022/01/20 05:56:26;;;;;;;12.43;2.57;;;1.20;99.90;;;;;;4878976;29;20085;-85
2022/01/20 05:58:51;;;;;;;11.33;1.90;;;1.20;99.90;;;;;;4877738;29;20497;-85
2022/01/20 06:01:17;;;;;;;13.93;2.30;;;1.30;99.90;;;;;;4890376;29;20099;-84
2022/01/20 06:03:43;;;;;;;16.40;2.83;;;1.30;99.90;;;;;;4879679;29;20143;-84
2022/01/20 06:06:11;;;;;;;9.83;2.37;;;1.30;99.90;;;;;;4861743;29;20517;-84
2022/01/20 06:08:39;;;;;;;15.63;2.60;;;1.30;99.90;;;;;;4878941;29;20067;-84
2022/01/20 06:11:05;;;;;;;14.00;2.03;;;1.30;99.90;;;;;;4862552;29;20045;-84
2022/01/20 06:13:31;;;;;;;14.93;3.47;;;1.30;99.90;;;;;;4861319;29;20060;-84
2022/01/20 06:15:58;;;;;;;9.13;1.67;;;1.30;99.90;;;;;;4878490;29;20049;-84
2022/01/20 06:18:24;;;;;;;12.20;1.87;;;1.20;99.90;;;;;;4862474;29;20049;-84
2022/01/20 06:20:50;;;;;;;9.77;2.10;;;1.20;99.90;;;;;;4877240;29;20059;-86
2022/01/20 06:23:17;;;;;;;9.83;1.90;;;1.20;99.90;;;;;;4862406;29;20048;-85
2022/01/20 06:25:43;;;;;;;10.03;2.20;;;1.10;99.90;;;;;;4862061;29;20057;-85
2022/01/20 06:28:09;;;;;;;9.93;1.70;;;1.00;99.90;;;;;;4865897;29;20044;-85
2022/01/20 06:30:35;;;;;;;9.83;2.30;;;1.00;99.90;;;;;;4862718;23;20143;-85
2022/01/20 06:33:01;;;;;;;12.03;2.00;;;0.90;99.90;;;;;;4810100;29;20090;-85
2022/01/20 06:35:27;;;;;;;11.47;2.00;;;0.90;99.90;;;;;;4845020;29;20079;-85
2022/01/20 06:37:53;;;;;;;11.17;1.77;;;0.90;99.90;;;;;;4823113;29;20158;-85
2022/01/20 06:40:19;;;;;;;11.60;2.07;;;0.90;99.90;;;;;;4810098;29;20053;-85
2022/01/20 06:42:44;;;;;;;12.67;2.23;;;0.90;99.90;;;;;;4826310;29;20049;-85
2022/01/20 06:45:13;;;;;;;10.23;2.07;;;0.90;99.90;;;;;;4810814;29;20511;-86
2022/01/20 06:47:42;;;;;;;12.53;2.47;;;1.00;99.90;;;;;;4810291;29;20134;-85
2022/01/20 06:50:10;;;;;;;12.17;2.13;;;1.00;99.90;;;;;;4810506;29;20503;-85
2022/01/20 06:52:37;;;;;;;9.50;2.00;;;1.10;99.90;;;;;;4810305;29;20137;-85
2022/01/20 06:55:09;;;;;;;11.30;1.97;;;1.20;99.90;;;;;;4811389;29;20046;-85
2022/01/20 06:57:35;;;;;;;10.60;1.70;;;1.20;99.90;;;;;;4810290;29;20133;-85
2022/01/20 07:00:04;;;;;;;16.67;3.07;;;1.20;99.90;;;;;;4825928;29;20717;-85
2022/01/20 07:02:29;;;;;;;11.23;2.30;;;1.10;99.90;;;;;;4809600;29;20057;-85
2022/01/20 07:04:55;;;;;;;13.67;2.53;;;1.10;99.90;;;;;;4826676;29;20050;-85
2022/01/20 07:07:20;;;;;;;12.37;3.17;;;1.10;99.90;;;;;;4825111;29;20054;-85
2022/01/20 07:09:46;;;;;;;15.47;2.70;;;1.20;99.90;;;;;;4825716;29;20045;-85
2022/01/20 07:12:13;;;;;;;16.40;2.80;;;1.40;99.90;;;;;;4814701;29;20066;-84
2022/01/20 07:14:39;;;;;;;11.87;2.63;;;1.30;99.90;;;;;;4818165;29;20103;-85
2022/01/20 07:17:06;;;;;;;12.20;2.10;;;1.30;99.90;;;;;;4809766;29;20107;-86
2022/01/20 07:19:32;;;;;;;17.97;2.43;;;1.30;99.90;;;;;;4813416;29;20126;-85
2022/01/20 07:21:59;;;;;;;15.77;2.60;;;1.30;99.90;;;;;;4810767;29;20048;-85
2022/01/20 07:24:31;;;;;;;15.60;2.70;;;1.30;99.90;;;;;;4824523;29;20054;-85
2022/01/20 07:26:57;;;;;;;11.93;2.33;;;2.70;99.90;;;;;;4809900;29;20107;-85
2022/01/20 07:29:24;;;;;;;15.27;2.23;;;1.20;99.90;;;;;;4823789;29;20169;-86
2022/01/20 07:31:50;;;;;;;16.07;2.53;;;1.10;99.90;;;;;;4826810;29;20054;-85
2022/01/20 07:34:15;;;;;;;14.50;2.13;;;1.00;99.90;;;;;;4809349;29;20047;-85
2022/01/20 07:36:41;;;;;;;10.50;2.00;;;1.00;99.90;;;;;;4824594;29;20133;-85
2022/01/20 07:39:06;;;;;;;10.77;2.03;;;0.90;99.90;;;;;;4808845;29;20137;-84
2022/01/20 07:41:33;;;;;;;13.10;2.73;;;0.90;99.90;;;;;;4824801;29;20058;-85
2022/01/20 07:43:59;;;;;;;13.80;2.23;;;0.80;99.90;;;;;;4824157;29;20491;-85
2022/01/20 07:46:25;;;;;;;13.63;2.00;;;0.80;99.90;;;;;;4809457;29;20145;-87
2022/01/20 07:48:57;;;;;;;10.57;2.10;;;1.90;99.90;;;;;;4820327;29;20030;-88
2022/01/20 07:51:31;;;;;;;10.57;1.73;;;0.10;99.90;;;;;;4831939;29;20507;-88
2022/01/20 07:54:03;;;;;;;11.50;2.13;;;0.60;99.90;;;;;;4819686;29;20111;-88
2022/01/20 07:56:29;;;;;;;12.37;2.20;;;1.00;99.90;;;;;;4809419;29;20440;-88
2022/01/20 07:58:54;;;;;;;14.53;2.50;;;0.60;99.90;;;;;;4809149;29;20130;-89
2022/01/20 08:01:29;;;;;;;12.17;2.20;;;0.70;99.90;;;;;;4809295;29;20086;-85
2022/01/20 08:04:08;;;;;;;15.47;2.50;;;0.70;99.90;;;;;;4809576;29;20054;-86
2022/01/20 08:06:48;;;;;;;12.20;2.33;;;0.70;99.90;;;;;;4808763;29;20046;-87
2022/01/20 08:09:28;;;;;;;17.33;2.53;;;0.70;99.90;;;;;;4809114;29;20058;-87
2022/01/20 08:12:07;;;;;;;12.57;2.47;;;1.10;99.90;;;;;;4808733;29;20042;-86
2022/01/20 08:14:33;;;;;;;15.57;3.23;;;1.70;99.90;;;;;;4809393;29;20058;-89
2022/01/20 08:17:20;;;;;;;13.82;2.63;;;0.80;99.90;;;;;;4825238;29;20050;-88
2022/01/20 08:20:06;;;;;;;11.47;2.37;;;0.80;99.90;;;;;;4808562;29;20047;-87
2022/01/20 08:22:34;;;;;;;12.67;2.23;;;1.00;99.90;;;;;;4809394;29;20256;-87
2022/01/20 08:25:05;;;;;;;10.90;2.03;;;1.00;99.90;;;;;;4849767;23;20062;-86
2022/01/20 08:27:31;;;;;;;14.97;2.13;;;1.00;99.90;;;;;;4863265;29;20061;-86
2022/01/20 08:30:08;;;;;;;13.50;2.20;;;1.10;99.90;;;;;;4862239;29;20037;-87
2022/01/20 08:32:35;;;;;;;10.27;2.03;;;1.40;99.90;;;;;;4859071;29;20813;-85
2022/01/20 08:35:20;;;;;;;12.63;2.50;;;1.70;99.90;;;;;;4861221;29;20049;-88
2022/01/20 08:37:52;;;;;;;14.87;2.93;;;1.30;99.90;;;;;;4859973;29;20037;-86
2022/01/20 08:40:22;;;;;;;11.20;1.90;;;2.50;99.90;;;;;;4875426;23;20049;-89
2022/01/20 08:43:12;;;;;;;13.53;2.03;;;2.10;99.90;;;;;;4861546;29;20148;-88
2022/01/20 08:45:39;;;;;;;8.97;2.33;;;1.30;99.90;;;;;;4830538;29;20045;-89
2022/01/20 08:48:08;;;;;;;17.03;2.37;;;1.20;99.90;;;;;;4859848;24;20522;-89
2022/01/20 08:50:59;;;;;;;12.63;2.03;;;1.60;99.90;;;;;;4871229;29;20052;-90
2022/01/20 08:53:31;;;;;;;9.47;2.10;;;1.40;99.90;;;;;;4852248;29;20049;-88
2022/01/20 08:56:00;;;;;;;16.17;2.60;;;1.30;99.90;;;;;;4853743;29;20091;-89
2022/01/20 08:58:26;;;;;;;10.83;2.10;;;3.40;99.90;;;;;;4854483;29;20033;-88
2022/01/20 09:01:00;;;;;;;12.27;2.33;;;1.30;99.90;;;;;;4858863;29;20064;-89
2022/01/20 09:03:25;;;;;;;9.20;2.40;;;2.90;99.90;;;;;;4861312;29;20046;-88
2022/01/20 09:05:55;;;;;;;10.13;1.97;;;1.40;99.90;;;;;;4852584;29;20378;-88
2022/01/20 09:08:24;;;;;;;15.70;2.50;;;1.20;99.90;;;;;;4853650;29;20081;-89
2022/01/20 09:11:06;;;;;;;16.33;2.83;;;1.20;99.90;;;;;;4855430;29;20046;-88
2022/01/20 09:16:29;;;;;;;13.03;3.13;;;1.10;99.90;;;;;;4854421;29;20061;-91
2022/01/20 09:19:07;;;;;;;16.60;3.00;;;1.30;99.90;;;;;;4852153;29;20109;-89
2022/01/20 09:21:45;;;;;;;16.50;3.07;;;1.40;99.90;;;;;;4869373;29;20049;-89
2022/01/20 09:24:20;;;;;;;13.67;2.50;;;1.40;99.90;;;;;;4864414;23;20517;-88
2022/01/20 09:26:46;;;;;;;16.07;2.57;;;1.90;99.90;;;;;;4821573;29;20057;-88
2022/01/20 09:29:21;;;;;;;12.23;2.27;;;1.80;99.90;;;;;;4822977;29;20050;-88
2022/01/20 09:31:55;;;;;;;15.20;2.57;;;1.90;99.90;;;;;;4823617;29;20050;-87
2022/01/20 09:34:33;;;;;;;15.43;3.93;;;1.00;99.90;;;;;;4823386;29;20111;-87
2022/01/20 09:37:12;;;;;;;14.37;2.30;;;2.40;99.90;;;;;;4837750;29;20512;-87
2022/01/20 09:39:39;;;;;;;8.70;2.00;;;2.90;99.90;;;;;;4833495;29;20046;-84
2022/01/20 09:42:18;;;;;;;12.53;2.27;;;4.50;99.90;;;;;;4824235;29;20050;-85
2022/01/20 09:44:46;;;;;;;8.97;1.80;;;2.70;99.90;;;;;;4822047;29;20054;-87
2022/01/20 09:47:16;;;;;;;13.63;2.30;;;2.50;99.90;;;;;;4824237;29;20392;-88
2022/01/20 09:49:42;;;;;;;9.73;1.90;;;2.30;99.90;;;;;;4822853;29;20034;-86
2022/01/20 09:52:23;;;;;;;10.77;1.93;;;2.30;99.90;;;;;;4823104;29;20050;-88
2022/01/20 09:55:01;;;;;;;11.30;2.03;;;2.40;99.90;;;;;;4823095;29;20099;-87
2022/01/20 09:57:32;;;;;;;11.83;2.20;;;2.10;99.90;;;;;;4822576;29;20061;-88
2022/01/20 09:59:59;;;;;;;10.17;1.90;;;1.70;99.90;;;;;;4823340;29;20046;-87
2022/01/20 10:02:30;;;;;;;10.30;2.17;;;2.40;99.90;;;;;;4823193;29;20046;-86
2022/01/20 10:04:56;;;;;;;8.83;2.07;;;2.40;99.90;;;;;;4823291;29;20074;-88
2022/01/20 10:07:34;;;;;;;10.07;1.83;;;2.60;99.90;;;;;;4822711;29;20146;-87
2022/01/20 10:10:00;;;;;;;12.27;2.20;;;2.60;99.90;;;;;;4823141;29;20042;-86
2022/01/20 10:12:31;;;;;;;8.37;1.70;;;2.50;99.90;;;;;;4823624;29;20050;-84
2022/01/20 10:14:58;;;;;;;7.17;2.07;;;2.60;99.90;;;;;;4837523;29;20147;-87
2022/01/20 10:17:28;;;;;;;10.67;2.00;;;2.60;99.90;;;;;;4822832;29;20054;-85
2022/01/20 10:20:03;;;;;;;11.93;2.00;;;2.50;99.90;;;;;;4823740;29;20050;-86
2022/01/20 10:22:31;;;;;;;10.17;1.70;;;2.50;99.90;;;;;;4821463;29;20560;-86
2022/01/20 10:25:04;;;;;;;12.03;2.20;;;3.30;99.90;;;;;;4821261;29;20065;-86
2022/01/20 10:27:32;;;;;;;12.02;2.00;;;2.30;99.90;;;;;;4821563;29;20066;-86
2022/01/20 10:30:07;;;;;;;9.60;1.93;;;3.30;99.90;;;;;;4821567;29;20099;-86
2022/01/20 10:32:41;;;;;;;12.37;2.50;;;2.30;99.90;;;;;;4821394;29;20050;-86
2022/01/20 10:35:10;;;;;;;12.53;2.63;;;2.30;99.90;;;;;;4821490;29;20103;-86
2022/01/20 10:37:38;;;;;;;9.87;2.23;;;2.40;99.90;;;;;;4822249;29;20095;-86
2022/01/20 10:40:12;;;;;;;10.03;2.60;;;2.50;99.90;;;;;;4821151;29;21049;-86
2022/01/20 10:42:44;;;;;;;11.70;2.03;;;2.60;99.90;;;;;;4821683;29;20050;-86
2022/01/20 10:45:23;;;;;;;12.33;2.10;;;2.70;99.90;;;;;;4822351;29;20039;-86
2022/01/20 10:47:51;;;;;;;11.53;2.00;;;2.80;99.90;;;;;;4820620;29;20074;-86
2022/01/20 10:50:23;;;;;;;10.90;2.00;;;2.90;99.90;;;;;;4824545;29;20038;-86
2022/01/20 10:52:50;;;;;;;10.00;2.07;;;3.00;99.90;;;;;;4809852;29;20138;-86
2022/01/20 10:55:30;;;;;;;13.73;2.23;;;3.10;99.90;;;;;;4803288;29;20043;-85
2022/01/20 10:58:09;;;;;;;12.33;2.90;;;3.00;99.90;;;;;;4804479;29;20472;-85
2022/01/20 11:00:41;;;;;;;9.33;2.10;;;4.00;99.90;;;;;;4804059;29;20051;-87
2022/01/20 11:03:07;;;;;;;7.60;1.83;;;4.30;99.90;;;;;;4806132;29;20062;-86
2022/01/20 11:05:33;;;;;;;12.50;2.10;;;3.00;99.90;;;;;;4822227;29;20054;-85
2022/01/20 11:08:00;;;;;;;11.30;3.17;;;3.20;99.90;;;;;;4821352;29;20121;-85
2022/01/20 11:10:25;;;;;;;11.17;2.23;;;3.30;99.90;;;;;;4822107;29;20068;-87
2022/01/20 11:12:51;;;;;;;14.23;2.20;;;3.30;99.90;;;;;;4822928;29;20483;-86
2022/01/20 11:15:20;;;;;;;13.03;2.50;;;3.30;99.90;;;;;;4824610;29;20050;-86
2022/01/20 11:17:52;;;;;;;12.87;2.10;;;3.40;99.90;;;;;;4825097;29;20043;-86
2022/01/20 11:20:24;;;;;;;14.97;4.43;;;3.70;99.90;;;;;;4824854;29;20082;-86
2022/01/20 11:22:57;;;;;;;12.17;2.30;;;3.80;99.90;;;;;;4824660;29;20085;-86
2022/01/20 11:25:25;;;;;;;12.48;2.08;;;3.70;99.90;;;;;;4825917;29;20059;-87
2022/01/20 11:28:12;;;;;;;13.13;2.20;;;3.50;99.90;;;;;;4851024;29;20061;-86
2022/01/20 11:30:54;;;;;;;11.50;2.10;;;3.40;99.90;;;;;;4825051;29;20050;-86
2022/01/20 11:33:22;;;;;;;11.17;2.30;;;3.30;99.90;;;;;;4824576;29;20051;-87
2022/01/20 11:35:49;;;;;;;12.37;2.20;;;3.50;99.90;;;;;;4824376;29;20066;-86
2022/01/20 11:38:19;;;;;;;13.47;2.20;;;3.60;99.90;;;;;;4825854;29;20050;-85
2022/01/20 11:41:13;;;;;;;10.93;2.20;;;3.70;99.90;;;;;;4824890;29;20050;-86
2022/01/20 11:43:41;;;;;;;13.70;2.27;;;3.70;99.90;;;;;;4824330;29;20058;-85
2022/01/20 11:46:24;;;;;;;12.13;2.23;;;5.50;99.90;;;;;;4824731;29;20074;-88
2022/01/20 11:49:00;;;;;;;11.00;2.00;;;3.90;99.90;;;;;;4824418;29;20050;-86
2022/01/20 11:51:45;;;;;;;11.63;2.20;;;4.10;99.90;;;;;;4823176;29;20098;-88
2022/01/20 11:54:24;;;;;;;17.53;2.70;;;4.30;99.90;;;;;;4821575;29;20450;-88
2022/01/20 11:57:15;;;;;;;12.50;2.33;;;4.40;99.90;;;;;;4824018;29;20054;-86
2022/01/20 12:00:00;;;;;;;11.37;2.30;;;4.10;99.90;;;;;;4825237;29;20046;-90
2022/01/20 12:02:35;;;;;;;9.57;2.00;;;4.70;99.90;;;;;;4820897;29;20035;-86
2022/01/20 12:05:27;;;;;;;13.50;2.40;;;3.00;99.90;;;;;;4825068;29;20057;-85
2022/01/20 12:08:11;;;;;;;9.70;1.80;;;2.40;99.90;;;;;;4824589;29;20038;-87
2022/01/20 12:10:40;;;;;;;;;;;2.40;99.90;;;;;;4806083;29;20500;-88
2022/01/20 12:13:11;;;;;;;12.13;1.90;;;2.50;99.90;;;;;;4806134;29;19925;-88
2022/01/20 12:15:48;;;;;;;14.07;2.50;;;2.50;99.90;;;;;;4850490;23;20116;-88
2022/01/20 12:18:24;;;;;;;18.93;2.60;;;2.80;99.90;;;;;;4853445;29;20481;-88
2022/01/20 12:21:17;;;;;;;15.10;2.57;;;3.00;99.90;;;;;;4877108;29;20587;-87
2022/01/20 12:23:45;;;;;;;14.13;2.67;;;3.30;99.90;;;;;;4863474;29;20049;-88
2022/01/20 12:26:31;;;;;;;12.30;2.67;;;3.30;99.90;;;;;;4857277;29;20042;-87
2022/01/20 12:29:32;;;;;;;10.50;1.87;;;3.30;99.90;;;;;;4855548;23;20049;-87
2022/01/20 12:32:12;;;;;;;8.67;1.70;;;2.60;99.90;;;;;;4858963;29;20060;-89
2022/01/20 12:34:38;;;;;;;12.73;2.33;;;2.30;99.90;;;;;;4845774;29;20046;-87
2022/01/20 12:37:18;;;;;;;9.17;1.90;;;2.00;99.90;;;;;;4845856;29;20086;-90
2022/01/20 12:39:50;;;;;;;7.37;1.63;;;0.90;99.90;;;;;;4850503;29;20065;-95
2022/01/20 12:42:38;;;;;;;8.30;1.87;;;3.70;99.90;;;;;;4856772;29;20037;-86
2022/01/20 12:49:16;;;;;;;7.17;1.67;;;3.00;99.90;;;;;;4887601;23;20406;-93
2022/01/20 12:51:55;;;;;;;8.67;1.60;;;2.70;99.90;;;;;;4790618;29;20603;-92
2022/01/20 12:54:32;;;;;;;10.77;1.90;;;3.30;99.90;;;;;;4789479;29;20066;-91
2022/01/20 12:57:12;;;;;;;7.33;2.07;;;3.00;99.90;;;;;;4790604;29;20053;-92
2022/01/20 12:59:57;;;;;;;8.03;1.70;;;2.50;99.90;;;;;;4837615;23;20061;-91
2022/01/20 13:03:14;;;;;;;9.67;1.90;;;4.40;99.90;;;;;;4861081;29;20064;-92
2022/01/20 13:05:49;;;;;;;10.90;2.20;;;2.30;99.90;;;;;;4860466;29;20053;-93
2022/01/20 13:08:31;;;;;;;15.37;2.23;;;3.50;99.90;;;;;;4865725;23;20053;-89
2022/01/20 13:11:12;;;;;;;11.37;2.40;;;4.60;99.90;;;;;;4862620;29;20057;-91
2022/01/20 13:17:12;;;;;;;;;;;;;;;;;;;;;
2022/01/20 13:20:03;;;;;;;12.43;2.13;;;3.00;99.90;;;;;;4811994;29;20533;-91
2022/01/20 13:22:41;;;;;;;13.23;2.87;;;2.40;99.90;;;;;;4807013;29;20053;-91
2022/01/20 13:25:15;;;;;;;9.10;1.90;;;3.00;99.90;;;;;;4808183;29;20372;-91
2022/01/20 13:30:50;;;;;;;12.33;2.20;;;3.40;99.90;;;;;;4886379;23;20449;-91
2022/01/20 13:36:54;;;;;;;16.23;2.47;;;3.50;99.90;;;;;;4862293;29;20057;-90
2022/01/20 13:39:37;;;;;;;13.43;2.43;;;3.80;99.90;;;;;;4864754;29;20049;-91
2022/01/20 13:45:17;;;;;;;11.60;2.20;;;2.90;99.90;;;;;;4864319;29;20151;-90
2022/01/20 13:47:57;;;;;;;12.83;2.10;;;3.20;99.90;;;;;;4863727;29;20049;-90
2022/01/20 13:50:35;;;;;;;11.80;2.50;;;3.10;99.90;;;;;;4861979;29;20049;-90
2022/01/20 13:53:16;;;;;;;17.07;2.60;;;3.40;99.90;;;;;;4873575;29;20089;-90
2022/01/20 13:55:56;;;;;;;15.27;2.70;;;4.40;99.90;;;;;;4865388;29;20037;-89
2022/01/20 13:58:31;;;;;;;15.03;2.37;;;3.30;99.90;;;;;;4863219;29;20064;-90
2022/01/20 14:01:17;;;;;;;16.07;2.80;;;3.10;99.90;;;;;;4863717;29;20053;-90
2022/01/20 14:03:57;;;;;;;11.43;3.23;;;3.00;99.90;;;;;;4863575;29;20049;-90
2022/01/20 14:09:08;;;;;;;18.00;2.93;;;2.70;99.90;;;;;;4883860;23;20501;-91
2022/01/20 14:11:49;;;;;;;13.40;2.40;;;4.00;99.90;;;;;;4863216;29;20052;-90
2022/01/20 14:14:29;;;;;;;13.00;3.13;;;2.40;99.90;;;;;;4862949;29;20048;-90
2022/01/20 14:17:51;;;;;;;10.83;2.20;;;2.80;99.90;;;;;;4863199;29;20053;-90
2022/01/20 14:20:50;;;;;;;11.83;2.40;;;2.60;99.90;;;;;;4806826;29;20055;-90
2022/01/20 14:25:52;;;;;;;11.17;2.07;;;3.20;99.90;;;;;;4891634;23;20068;-90
2022/01/20 14:28:26;;;;;;;11.67;2.17;;;2.80;99.90;;;;;;4864068;29;20093;-91
2022/01/20 14:31:06;;;;;;;3.58;1.27;;;2.90;99.90;;;;;;4873509;29;20060;-90
2022/01/20 14:33:50;;;;;;;7.77;1.80;;;4.20;99.90;;;;;;4862938;29;20730;-90
2022/01/20 14:36:31;;;;;;;7.00;1.63;;;2.40;99.90;;;;;;4862644;29;20048;-90
2022/01/20 14:39:12;;;;;;;7.20;1.77;;;2.00;99.90;;;;;;4862102;29;20474;-90